Saint Albans, Missouri
Current Conditions -  °F | °C
As of 8:54 PM on Thursday 27 Nov 2014 (Local Time) from KSUS Reporting Station
Clear Clear  
Wind Chill: 26°   Ceiling: Unl
Heat Index: 26°   Visibility: 10mi
Dew Point: 21°   Wind: 3mph
Humidity: 81%   Direction: 90°E
Pressure: 30.44"   Gusts: NA
Location:  38.58°N, 90.77°W
Report Text: KSUS 280254Z 09003KT 10SM CLR M03/M06 A3044 RMK AO2 SLP317 T10331061 58007
Loading
Personal Weather Stations






























Interactive Weather Map New forecast layout! Learn more

10-Day Weather Forecast

Advertisements
Track Severe Weather on mobile